METAR ET TAF INFORMATION
METAR FOR EBLG
ADDS - METARS form results

(0113 UTC 21 August 2019)
Data provider http://aviationweather.gov/metar/data/
 
METAR text: EBLG 210050Z VRB02KT CAVOK 13/09 Q1028 NOSIG
Conditions at: EBLG (BIERSET/LIEGE (C, BE) observed 0050 UTC 21 August 2019
Temperature: 13.0°C (55°F)
Dewpoint: 9.0°C (48°F) [RH = 77%]
Pressure (altimeter): 30.35 inches Hg (1028.0 mb)
Winds: variable direction winds at 2 MPH (2 knots; 1.0 m/s)
Visibility: 6 or more miles (10+ km)
Ceiling: ceiling and visibility are OK
Clouds: unknown
Weather: no significant weather observed at this time

METAR text: EBLG 210020Z 24003KT CAVOK 13/10 Q1028 NOSIG
Conditions at: EBLG (BIERSET/LIEGE (C, BE) observed 0020 UTC 21 August 2019
Temperature: 13.0°C (55°F)
Dewpoint: 10.0°C (50°F) [RH = 82%]
Pressure (altimeter): 30.35 inches Hg (1028.0 mb)
Winds: from the WSW (240 degrees) at 3 MPH (3 knots; 1.5 m/s)
Visibility: 6 or more miles (10+ km)
Ceiling: ceiling and visibility are OK
Clouds: unknown
Weather: no significant weather observed at this time

Forecast for: EBLG (BIERSET/LIEGE (C, BE)
Text: TAF EBLG 202310Z 2100/2206 VRB03KT 9999 FEW030
Forecast period: 0000 UTC 21 August 2019 to 0600 UTC 22 August 2019
Forecast type: FROM: standard forecast or significant change
Winds: variable direction winds at 3 MPH (3 knots; 1.5 m/s)
Visibility: 6 or more miles 10+ km)
Ceiling: at least 12,000 feet AGL
Clouds: few clouds at 3000 feet AGL
Weather: no significant weather forecast for this period

 AÉROPORT DE AÉROPORT

 INFORMATIONS DE PISTE
Piste 05L Longueur de la piste 7677 ft Largeur de la piste 148 ft
Élévation de la piste 637 ft Seuil de la piste déplacés 0 ft Runway heading 45
Piste 23R Longueur de la piste 7677 ft Largeur de la piste 148 ft
Élévation de la piste 585 ft Seuil de la piste déplacés 0 ft Runway heading 225
Piste 05R Longueur de la piste 10784 ft Largeur de la piste 148 ft
Élévation de la piste 652 ft Seuil de la piste déplacés 774 ft Runway heading 45
Piste 23L Longueur de la piste 10784 ft Largeur de la piste 148 ft
Élévation de la piste 603 ft Seuil de la piste déplacés 0 ft Runway heading 225

 AÉROPORT FRÉQUENCES
Type A/D Nom APP Féquence 119.275 MHZ
Type ATIS Nom ATIS Féquence 126.25 MHZ
Type CLD Nom CLNC DEL Féquence 121.8 MHZ
Type GND Nom GND Féquence 121.925 MHZ
Type TWR Nom TWR Féquence 129.25 MHZ

 SIDA DE NAVIGATION
Type NDB Nom Liege Féquence 349 KHZ
Type VOR-DME Nom Liege Féquence 115450 KHZ
Type NDB Nom Liege Féquence 290 KHZ



Powered by Virtual Airlines Manager [v2.6.2]